KDOV/DOV METAR and TAF weather

Enter ICAO airport designator
Station Type Date Time Source
KDOV METAR 2021/08/04 18:56 UTC NOAA

KDOV 041856Z AUTO 05007KT 10SM FEW022 FEW200 24/18 A3008 RMK AO2 SLP190 T02420177 $


Station Type Date Time Source
KDOV Decoded METAR 2021/08/04 18:56 UTC NOAA

Dover Air Force Base, DE, United States (KDOV) 39-08N 075-28W
Aug 04, 2021 - 02:56 PM EDT / 2021.08.04 1856 UTC
Wind: from the NE (050 degrees) at 8 MPH (7 KT):0
Visibility: 10 mile(s):0
Sky conditions: mostly clear
Temperature: 75.6 F (24.2 C)
Dew Point: 63.9 F (17.7 C)
Relative Humidity: 67%
Pressure (altimeter): 30.08 in. Hg (1018 hPa)
ob: KDOV 041856Z AUTO 05007KT 10SM FEW022 FEW200 24/18 A3008 RMK AO2 SLP190 T02420177
cycle: 19

Station Type Date Time Source
KDOV TAF 2021/08/04 16:16 UTC NOAA

TAF KDOV 041600Z 0416/0522 06012KT 9999 FEW020 BKN200 QNH3003INS
TEMPO 0416/0420 06012G18KT
BECMG 0504/0505 03012KT 9999 SCT015 BKN030 QNH3003INS
TEMPO 0506/0510 BKN015
BECMG 0509/0510 36012KT 9999 SCT030 QNH3004INS TX25/0516Z TN17/0510Z

Example: see airport list